Time;durP1;ratioP1;P1;durP2;ratioP2;P2;SDS_P1;SDS_P2;PMS_P1;PMS_P2;Temp;Humidity;BMP_temperature;BMP_pressure;BME280_temperature;BME280_humidity;BME280_pressure;Samples;Min_cycle;Max_cycle;Signal;HPM_P1;HPM_P2
2022/05/01 00:01:19;;;;;;;26.07;13.20;;;6.10;99.90;;;;;;5044209;28;20043;-69
2022/05/01 00:03:45;;;;;;;24.77;12.97;;;6.10;99.90;;;;;;5038563;28;20246;-68
2022/05/01 00:06:11;;;;;;;22.40;12.87;;;6.00;99.90;;;;;;5043210;28;20033;-68
2022/05/01 00:16:12;;;;;;;25.73;13.13;;;6.00;99.90;;;;;;4966300;28;20631;-83
2022/05/01 00:19:08;;;;;;;22.17;12.10;;;6.00;99.90;;;;;;4976669;28;20041;-82
2022/05/01 00:21:55;;;;;;;22.90;13.23;;;5.90;99.90;;;;;;5053211;28;20098;-82
2022/05/01 00:24:48;;;;;;;22.63;13.00;;;5.90;99.90;;;;;;5057128;28;20525;-82
2022/05/01 00:27:26;;;;;;;24.95;12.55;;;5.90;99.90;;;;;;5042289;28;20070;-82
2022/05/01 00:37:10;;;;;;;20.52;11.65;;;5.80;99.90;;;;;;5052426;28;20482;-82
2022/05/01 00:40:15;;;;;;;;;;;;;;;;;;;;;
2022/05/01 00:54:22;;;;;;;21.50;12.77;;;5.60;99.90;;;;;;4981864;28;20039;-82
2022/05/01 00:57:08;;;;;;;23.70;13.95;;;5.40;99.90;;;;;;5035514;28;20056;-83
2022/05/01 01:00:08;;;;;;;21.98;12.57;;;5.50;99.90;;;;;;5070648;28;20036;-82
2022/05/01 01:09:06;;;;;;;23.38;12.32;;;5.40;99.90;;;;;;4995081;28;20478;-83
2022/05/01 01:15:09;;;;;;;17.55;11.52;;;5.40;99.90;;;;;;5052117;28;20363;-83
2022/05/01 01:17:46;;;;;;;25.67;13.15;;;5.30;99.90;;;;;;5054357;28;20041;-82
2022/05/01 01:20:43;;;;;;;23.67;12.38;;;5.30;99.90;;;;;;5049732;28;20028;-83
2022/05/01 01:23:16;;;;;;;18.85;11.63;;;5.30;99.90;;;;;;5048225;28;20593;-83
2022/05/01 01:26:24;;;;;;;;;;;;;;;;;;;;;
2022/05/01 01:32:37;;;;;;;18.60;11.10;;;5.10;99.90;;;;;;5010592;28;20043;-83
2022/05/01 01:35:07;;;;;;;17.55;10.77;;;5.20;99.90;;;;;;5054701;28;20051;-82
2022/05/01 01:41:11;;;;;;;21.65;11.00;;;5.10;99.90;;;;;;5043860;28;20047;-83
2022/05/01 01:44:23;;;;;;;19.02;11.75;;;5.10;99.90;;;;;;5075675;28;20089;-83
2022/05/01 01:46:57;;;;;;;19.83;11.63;;;5.10;99.90;;;;;;5047726;28;20059;-83
2022/05/01 01:49:35;;;;;;;22.00;11.82;;;5.00;99.90;;;;;;5053933;28;20043;-83
2022/05/01 01:52:00;;;;;;;22.35;12.30;;;5.00;99.90;;;;;;5068904;28;20138;-82
2022/05/01 01:55:09;;;;;;;18.77;11.67;;;5.00;99.90;;;;;;5034440;28;20041;-82
2022/05/01 01:57:37;;;;;;;19.67;10.02;;;5.00;99.90;;;;;;5025209;28;20037;-83
2022/05/01 02:00:07;;;;;;;19.80;11.48;;;4.90;99.90;;;;;;5054431;22;20215;-65
2022/05/01 02:02:32;;;;;;;20.52;11.32;;;4.90;99.90;;;;;;5057817;28;20501;-66
2022/05/01 02:04:58;;;;;;;17.10;10.77;;;4.90;99.90;;;;;;5053492;28;20072;-65
2022/05/01 02:07:24;;;;;;;17.90;11.63;;;4.90;99.90;;;;;;5043355;28;20605;-65
2022/05/01 02:09:49;;;;;;;16.90;10.10;;;4.90;99.90;;;;;;5026393;28;20372;-65
2022/05/01 02:12:15;;;;;;;21.47;11.60;;;4.80;99.90;;;;;;5027894;28;20172;-65
2022/05/01 02:14:41;;;;;;;19.33;10.63;;;4.90;99.90;;;;;;5034085;28;20029;-65
2022/05/01 02:17:07;;;;;;;18.10;11.38;;;4.80;99.90;;;;;;5038038;28;20060;-65
2022/05/01 02:19:33;;;;;;;19.77;11.20;;;4.90;99.90;;;;;;5038121;28;20041;-65
2022/05/01 02:21:58;;;;;;;17.07;10.77;;;4.80;99.90;;;;;;5023991;28;20083;-65
2022/05/01 02:24:25;;;;;;;19.63;10.63;;;4.80;99.90;;;;;;5024773;28;20040;-65
2022/05/01 02:26:51;;;;;;;;;;;4.80;99.90;;;;;;5040732;28;20082;-65
2022/05/01 02:29:16;;;;;;;18.45;11.23;;;4.80;99.90;;;;;;5042004;28;20383;-65
2022/05/01 02:31:44;;;;;;;18.13;10.40;;;4.70;99.90;;;;;;5029257;28;20458;-65
2022/05/01 02:34:11;;;;;;;18.73;11.23;;;4.70;99.90;;;;;;5032259;28;20064;-65
2022/05/01 02:36:37;;;;;;;21.05;11.80;;;4.70;99.90;;;;;;5036170;28;20044;-65
2022/05/01 02:39:04;;;;;;;22.30;12.00;;;4.70;99.90;;;;;;5037324;28;20586;-65
2022/05/01 02:41:30;;;;;;;23.15;12.63;;;4.70;99.90;;;;;;5029808;28;20034;-65
2022/05/01 02:43:56;;;;;;;19.93;11.93;;;4.70;99.90;;;;;;5043180;28;20674;-65
2022/05/01 02:46:23;;;;;;;21.77;12.75;;;4.60;99.90;;;;;;5020708;28;20548;-66
2022/05/01 02:48:49;;;;;;;23.73;13.25;;;4.60;99.90;;;;;;5027864;28;20049;-65
2022/05/01 02:51:15;;;;;;;23.08;12.48;;;4.60;99.90;;;;;;5037349;28;20128;-65
2022/05/01 02:53:40;;;;;;;24.90;13.83;;;4.50;99.90;;;;;;5047152;28;20296;-65
2022/05/01 02:56:06;;;;;;;24.50;13.10;;;4.50;99.90;;;;;;5044391;28;20036;-65
2022/05/01 02:58:32;;;;;;;21.03;12.73;;;4.50;99.90;;;;;;5038384;28;20094;-65
2022/05/01 03:00:58;;;;;;;23.95;13.27;;;4.50;99.90;;;;;;5014956;28;20092;-65
2022/05/01 03:03:24;;;;;;;23.17;12.40;;;4.50;99.90;;;;;;5037152;28;20041;-65
2022/05/01 03:05:54;;;;;;;26.23;12.90;;;4.50;99.90;;;;;;5040000;28;20522;-65
2022/05/01 03:08:20;;;;;;;26.48;12.60;;;4.50;99.90;;;;;;5020769;28;20045;-65
2022/05/01 03:10:46;;;;;;;21.10;12.63;;;4.50;99.90;;;;;;5027009;28;20037;-65
2022/05/01 03:13:12;;;;;;;21.65;12.68;;;4.40;99.90;;;;;;5043753;28;20119;-65
2022/05/01 03:15:37;;;;;;;23.30;12.83;;;4.40;99.90;;;;;;5042316;28;20152;-65
2022/05/01 03:23:32;;;;;;;22.50;12.65;;;4.40;99.90;;;;;;5044080;28;20221;-65
2022/05/01 03:25:58;;;;;;;23.57;13.37;;;4.40;99.90;;;;;;5027714;28;20132;-65
2022/05/01 03:28:27;;;;;;;24.97;12.63;;;4.40;99.90;;;;;;5038842;28;20049;-65
2022/05/01 03:30:53;;;;;;;22.63;12.52;;;4.40;99.90;;;;;;5034935;28;20445;-65
2022/05/01 03:33:22;;;;;;;25.67;12.10;;;4.40;99.90;;;;;;5037931;28;20060;-65
2022/05/01 03:35:48;;;;;;;21.23;12.27;;;4.40;99.90;;;;;;5035675;28;20064;-65
2022/05/01 03:38:15;;;;;;;17.92;10.98;;;4.30;99.90;;;;;;5026093;28;20238;-65
2022/05/01 03:40:42;;;;;;;21.65;12.15;;;4.30;99.90;;;;;;5024018;28;20539;-65
2022/05/01 03:43:08;;;;;;;21.25;11.88;;;4.30;99.90;;;;;;5046747;28;20048;-65
2022/05/01 03:45:34;;;;;;;21.58;11.60;;;4.30;99.90;;;;;;5033730;28;20123;-65
2022/05/01 03:48:00;;;;;;;18.52;11.95;;;4.30;99.90;;;;;;5037947;28;20045;-65
2022/05/01 03:50:26;;;;;;;26.63;11.83;;;4.30;99.90;;;;;;5040301;28;20044;-65
2022/05/01 03:52:52;;;;;;;23.73;12.27;;;4.30;99.90;;;;;;5048763;28;20098;-65
2022/05/01 03:55:17;;;;;;;19.97;11.33;;;4.30;99.90;;;;;;5046961;28;20505;-65
2022/05/01 03:57:43;;;;;;;21.40;11.50;;;4.30;99.90;;;;;;5032788;28;20561;-65
2022/05/01 04:00:10;;;;;;;21.97;12.80;;;4.20;99.90;;;;;;5047068;28;20501;-65
2022/05/01 04:02:42;;;;;;;22.63;11.82;;;4.20;99.90;;;;;;5051063;28;20044;-65
2022/05/01 04:05:10;;;;;;;19.80;11.63;;;4.20;99.90;;;;;;5043015;28;20085;-65
2022/05/01 04:07:36;;;;;;;18.30;10.70;;;4.20;99.90;;;;;;5046021;28;20051;-65
2022/05/01 04:10:02;;;;;;;20.90;11.13;;;4.20;99.90;;;;;;5045225;28;20041;-65
2022/05/01 04:12:27;;;;;;;19.83;11.88;;;4.10;99.90;;;;;;5051012;28;20651;-65
2022/05/01 04:14:53;;;;;;;25.40;11.67;;;4.10;99.90;;;;;;5050005;28;20086;-65
2022/05/01 04:17:18;;;;;;;18.63;11.10;;;4.20;99.90;;;;;;5037793;28;20506;-66
2022/05/01 04:19:44;;;;;;;18.77;10.47;;;4.10;99.90;;;;;;5027846;28;20036;-65
2022/05/01 04:22:09;;;;;;;19.23;10.50;;;4.10;99.90;;;;;;5039411;28;20122;-65
2022/05/01 04:24:35;;;;;;;23.67;11.17;;;4.20;99.90;;;;;;5048441;28;20045;-65
2022/05/01 04:27:03;;;;;;;21.50;11.87;;;4.20;99.90;;;;;;5050353;28;20465;-65
2022/05/01 04:29:39;;;;;;;21.35;11.13;;;4.20;99.90;;;;;;5027583;28;20048;-65
2022/05/01 04:32:06;;;;;;;21.65;11.30;;;4.20;99.90;;;;;;5047097;28;20043;-65
2022/05/01 04:34:33;;;;;;;18.92;10.75;;;4.10;99.90;;;;;;5040276;28;20127;-65
2022/05/01 04:36:58;;;;;;;;;;;4.20;99.90;;;;;;5037872;28;20161;-66
2022/05/01 04:39:25;;;;;;;17.90;10.75;;;4.10;99.90;;;;;;5025476;28;20297;-65
2022/05/01 04:41:50;;;;;;;19.38;10.25;;;4.20;99.90;;;;;;5043574;28;20052;-65
2022/05/01 04:44:16;;;;;;;17.93;11.00;;;4.10;99.90;;;;;;5035923;28;20076;-65
2022/05/01 04:46:42;;;;;;;18.40;9.80;;;4.20;99.90;;;;;;5038080;28;20047;-65
2022/05/01 04:49:07;;;;;;;19.37;11.23;;;4.10;99.90;;;;;;5042730;28;20493;-65
2022/05/01 04:51:33;;;;;;;21.30;11.40;;;4.20;99.90;;;;;;5034241;28;20033;-65
2022/05/01 04:53:58;;;;;;;20.97;11.30;;;4.20;99.90;;;;;;5019617;28;20044;-65
2022/05/01 04:59:08;;;;;;;18.73;11.32;;;4.30;99.90;;;;;;5042221;28;20059;-65
2022/05/01 05:01:35;;;;;;;23.43;12.37;;;4.30;99.90;;;;;;5048525;28;20485;-65
2022/05/01 05:04:01;;;;;;;19.95;11.07;;;4.40;99.90;;;;;;5033271;28;20048;-65
2022/05/01 05:06:27;;;;;;;19.55;12.00;;;4.40;99.90;;;;;;5024978;28;20512;-65
2022/05/01 05:11:37;;;;;;;20.00;11.45;;;4.50;99.90;;;;;;5042097;28;20069;-65
2022/05/01 05:14:04;;;;;;;19.73;12.00;;;4.50;99.90;;;;;;5036423;28;20520;-65
2022/05/01 05:16:30;;;;;;;21.23;12.57;;;4.60;99.90;;;;;;5037134;28;20120;-65
2022/05/01 05:18:55;;;;;;;21.83;12.37;;;4.60;99.90;;;;;;5024935;28;20124;-65
2022/05/01 05:21:21;;;;;;;19.83;11.87;;;4.70;99.90;;;;;;5013702;28;21063;-65
2022/05/01 05:23:46;;;;;;;21.13;12.43;;;4.70;99.90;;;;;;5045516;28;20049;-65
2022/05/01 05:26:12;;;;;;;19.67;12.27;;;4.90;99.90;;;;;;5036596;28;20064;-65
2022/05/01 05:28:38;;;;;;;22.17;12.67;;;4.90;99.90;;;;;;5038650;28;20048;-65
2022/05/01 05:31:04;;;;;;;23.37;12.10;;;5.00;99.90;;;;;;5035817;28;20048;-66
2022/05/01 05:33:30;;;;;;;21.90;12.30;;;5.00;99.90;;;;;;5012061;28;20041;-65
2022/05/01 05:35:56;;;;;;;24.45;12.90;;;5.10;99.90;;;;;;5041289;28;20481;-65
2022/05/01 05:38:22;;;;;;;28.13;14.10;;;5.10;99.90;;;;;;5034862;28;20052;-66
2022/05/01 05:40:47;;;;;;;20.40;11.17;;;5.20;99.90;;;;;;5041049;28;20533;-65
2022/05/01 05:43:13;;;;;;;23.03;13.07;;;5.20;99.90;;;;;;5030920;28;20050;-66
2022/05/01 05:45:39;;;;;;;21.42;12.43;;;5.30;99.90;;;;;;5031514;28;20497;-65
2022/05/01 05:48:05;;;;;;;18.97;11.37;;;5.40;99.90;;;;;;5039642;28;20115;-65
2022/05/01 05:50:34;;;;;;;18.35;11.02;;;5.50;99.90;;;;;;5025210;28;20037;-66
2022/05/01 05:53:00;;;;;;;16.73;10.77;;;5.60;99.90;;;;;;5021677;28;20056;-65
2022/05/01 05:55:25;;;;;;;18.13;11.10;;;5.60;99.90;;;;;;5042610;28;20037;-65
2022/05/01 05:57:51;;;;;;;18.80;11.17;;;5.70;99.90;;;;;;5035094;28;20049;-65
2022/05/01 06:00:17;;;;;;;19.93;11.63;;;5.80;99.90;;;;;;5036050;28;20036;-65
2022/05/01 06:02:42;;;;;;;20.95;12.05;;;5.80;99.90;;;;;;5036806;28;20171;-65
2022/05/01 06:05:08;;;;;;;17.97;11.57;;;5.90;99.90;;;;;;5026906;28;20778;-65
2022/05/01 06:07:34;;;;;;;20.95;11.23;;;6.00;99.90;;;;;;5029197;28;20144;-65
2022/05/01 06:09:59;;;;;;;16.80;9.87;;;6.00;99.90;;;;;;5036169;28;20120;-65
2022/05/01 06:12:25;;;;;;;14.50;9.83;;;6.10;99.90;;;;;;5029502;28;20037;-65
2022/05/01 06:14:51;;;;;;;20.80;9.52;;;6.20;99.90;;;;;;5043125;28;20485;-65
2022/05/01 06:17:16;;;;;;;14.73;9.20;;;6.30;99.90;;;;;;5044896;28;20068;-65
2022/05/01 06:19:42;;;;;;;15.00;8.33;;;6.30;99.90;;;;;;5030497;28;20057;-65
2022/05/01 06:22:07;;;;;;;13.20;8.07;;;6.40;99.90;;;;;;5039770;28;20041;-65
2022/05/01 06:24:33;;;;;;;13.23;8.53;;;6.40;99.90;;;;;;5051429;28;20036;-65
2022/05/01 06:26:59;;;;;;;14.10;9.10;;;6.50;99.90;;;;;;5042967;28;20041;-65
2022/05/01 06:29:24;;;;;;;17.47;8.40;;;6.60;99.90;;;;;;5041462;28;20128;-65
2022/05/01 06:31:51;;;;;;;16.77;8.63;;;6.70;99.90;;;;;;5032208;28;20060;-65
2022/05/01 06:34:17;;;;;;;13.50;8.88;;;6.70;99.90;;;;;;5033666;28;20446;-65
2022/05/01 06:36:43;;;;;;;13.10;8.40;;;6.80;99.90;;;;;;5031542;28;20110;-65
2022/05/01 06:39:11;;;;;;;15.13;9.10;;;6.90;99.90;;;;;;5026051;28;20037;-65
2022/05/01 06:41:38;;;;;;;16.50;8.18;;;7.00;99.90;;;;;;5030257;28;20038;-66
2022/05/01 06:44:03;;;;;;;;;;;7.00;99.90;;;;;;5043349;28;20033;-65
2022/05/01 06:46:30;;;;;;;11.23;7.20;;;7.10;99.90;;;;;;5041507;28;19925;-66
2022/05/01 06:48:55;;;;;;;11.73;7.30;;;7.20;99.90;;;;;;5031859;28;20133;-65
2022/05/01 06:51:21;;;;;;;13.37;6.93;;;7.30;99.90;;;;;;5029000;28;20079;-65
2022/05/01 06:53:46;;;;;;;10.50;7.03;;;7.30;99.90;;;;;;5018966;28;20041;-65
2022/05/01 06:56:12;;;;;;;13.13;7.53;;;7.40;99.90;;;;;;5036390;28;20029;-65
2022/05/01 06:58:37;;;;;;;13.77;8.27;;;7.50;99.90;;;;;;5041479;28;20068;-66
2022/05/01 07:01:03;;;;;;;8.67;5.80;;;7.60;99.90;;;;;;5043240;28;20037;-65
2022/05/01 07:03:29;;;;;;;8.03;5.33;;;7.70;99.90;;;;;;5031533;28;20662;-65
2022/05/01 07:05:54;;;;;;;11.67;6.20;;;7.70;99.90;;;;;;5020240;28;20098;-65
2022/05/01 07:08:20;;;;;;;14.27;5.57;;;7.80;99.90;;;;;;5038925;28;20099;-65
2022/05/01 07:10:45;;;;;;;17.47;6.13;;;8.00;99.90;;;;;;5047896;28;20559;-66
2022/05/01 07:13:11;;;;;;;9.33;6.00;;;7.90;99.90;;;;;;5044197;28;20041;-65
2022/05/01 07:15:38;;;;;;;9.47;5.57;;;8.00;99.90;;;;;;5030113;28;20029;-68
2022/05/01 07:18:04;;;;;;;;;;;8.10;99.90;;;;;;5019156;28;20048;-65
2022/05/01 07:20:33;;;;;;;16.38;6.35;;;8.20;99.90;;;;;;5042550;28;19925;-65
2022/05/01 07:22:58;;;;;;;10.43;5.55;;;8.30;99.90;;;;;;5022228;28;20043;-65
2022/05/01 07:25:24;;;;;;;10.07;5.43;;;8.40;99.90;;;;;;5046563;28;20119;-65
2022/05/01 07:27:50;;;;;;;9.50;5.43;;;8.50;99.90;;;;;;5035932;28;20378;-65
2022/05/01 07:30:15;;;;;;;11.73;4.73;;;8.60;99.90;;;;;;5039430;28;20099;-65
2022/05/01 07:32:41;;;;;;;7.73;5.00;;;8.60;99.90;;;;;;5044006;28;20065;-65
2022/05/01 07:35:07;;;;;;;11.10;5.63;;;8.80;99.90;;;;;;5041011;28;20045;-65
2022/05/01 07:37:32;;;;;;;8.50;5.05;;;8.80;99.90;;;;;;5035494;28;20063;-65
2022/05/01 07:39:59;;;;;;;9.80;5.37;;;8.90;99.90;;;;;;5040804;28;20040;-66
2022/05/01 07:42:25;;;;;;;9.38;5.20;;;9.00;99.90;;;;;;5032194;28;20264;-65
2022/05/01 07:44:51;;;;;;;7.33;4.80;;;9.00;99.90;;;;;;5042094;28;20039;-65
2022/05/01 07:47:17;;;;;;;8.10;5.05;;;9.10;99.90;;;;;;5035903;28;20087;-66
2022/05/01 07:49:42;;;;;;;9.13;5.13;;;9.10;99.90;;;;;;5039042;28;20028;-66
2022/05/01 07:52:09;;;;;;;11.17;4.50;;;9.20;99.90;;;;;;5029116;28;20088;-66
2022/05/01 07:54:35;;;;;;;10.30;4.85;;;9.30;99.90;;;;;;5042276;28;20036;-65
2022/05/01 07:57:00;;;;;;;10.02;5.20;;;9.40;99.90;;;;;;5045980;28;20052;-66
2022/05/01 07:59:26;;;;;;;8.30;4.90;;;9.50;99.90;;;;;;5028784;28;20468;-66
2022/05/01 08:01:53;;;;;;;8.83;5.00;;;9.60;99.90;;;;;;5037182;28;20037;-65
2022/05/01 08:04:28;;;;;;;10.15;5.18;;;9.70;99.90;;;;;;5038238;28;20049;-65
2022/05/01 08:06:54;;;;;;;7.30;4.63;;;9.80;99.90;;;;;;5036273;28;20052;-66
2022/05/01 08:09:20;;;;;;;9.77;4.68;;;9.80;99.90;;;;;;5037513;28;20037;-65
2022/05/01 08:11:46;;;;;;;7.40;4.77;;;9.90;99.90;;;;;;5039305;28;20693;-65
2022/05/01 08:14:12;;;;;;;10.05;4.75;;;9.90;99.90;;;;;;5033789;28;20531;-65
2022/05/01 08:16:39;;;;;;;;;;;9.90;99.90;;;;;;5037688;28;20076;-65
2022/05/01 08:21:49;;;;;;;8.05;4.68;;;10.00;99.90;;;;;;5034297;28;20057;-65
2022/05/01 08:24:15;;;;;;;6.77;4.03;;;10.10;99.90;;;;;;5019672;28;20517;-65
2022/05/01 08:26:42;;;;;;;6.18;4.15;;;10.30;99.90;;;;;;5030255;28;20080;-66
2022/05/01 08:29:08;;;;;;;6.25;4.35;;;10.40;99.90;;;;;;5039090;28;20586;-66
2022/05/01 08:31:33;;;;;;;6.70;4.30;;;10.50;99.90;;;;;;5036188;28;20065;-65
2022/05/01 08:33:59;;;;;;;8.30;4.70;;;10.50;99.90;;;;;;5005564;28;20327;-65
2022/05/01 08:36:29;;;;;;;6.88;5.00;;;10.60;99.90;;;;;;5044362;28;20048;-66
2022/05/01 08:38:54;;;;;;;8.25;4.90;;;10.60;99.90;;;;;;5031998;28;20046;-66
2022/05/01 08:41:22;;;;;;;7.70;4.33;;;10.70;99.90;;;;;;5031179;28;20045;-65
2022/05/01 08:43:47;;;;;;;9.32;4.80;;;10.80;99.90;;;;;;5034338;28;20037;-65
2022/05/01 08:46:39;;;;;;;6.70;4.30;;;10.90;99.90;;;;;;5044236;28;20037;-65
2022/05/01 08:49:07;;;;;;;7.25;4.05;;;11.00;99.90;;;;;;5041341;28;20041;-66
2022/05/01 08:51:35;;;;;;;9.93;4.85;;;11.10;99.90;;;;;;5013296;28;20068;-66
2022/05/01 08:54:19;;;;;;;5.95;3.90;;;11.20;99.90;;;;;;5042923;28;20052;-66
2022/05/01 08:56:45;;;;;;;8.27;4.10;;;11.30;99.90;;;;;;5050488;28;20037;-66
2022/05/01 08:59:14;;;;;;;8.07;4.10;;;11.40;99.90;;;;;;5042380;28;20045;-65
2022/05/01 09:01:41;;;;;;;8.38;4.55;;;11.50;99.90;;;;;;5034469;28;20048;-66
2022/05/01 09:04:09;;;;;;;7.80;4.05;;;11.60;99.90;;;;;;5026055;28;20029;-66
2022/05/01 09:06:36;;;;;;;8.43;5.07;;;11.50;99.90;;;;;;5020515;28;20190;-66
2022/05/01 09:09:06;;;;;;;6.70;3.88;;;11.60;99.90;;;;;;5021562;28;20300;-65
2022/05/01 09:14:17;;;;;;;5.55;3.42;;;11.50;99.90;;;;;;5032637;28;20406;-66
2022/05/01 09:17:27;;;;;;;6.45;3.47;;;11.50;99.90;;;;;;5049700;28;20048;-66
2022/05/01 09:20:07;;;;;;;7.90;4.18;;;11.50;99.90;;;;;;5002184;28;20116;-65
2022/05/01 09:22:50;;;;;;;6.95;4.88;;;11.50;99.90;;;;;;4998869;28;20033;-65
2022/05/01 09:25:24;;;;;;;5.85;4.10;;;11.50;99.90;;;;;;5025959;28;20128;-65
2022/05/01 09:27:56;;;;;;;8.50;4.00;;;11.50;99.90;;;;;;5033213;28;20041;-65
2022/05/01 09:30:31;;;;;;;7.57;4.25;;;11.50;99.90;;;;;;5040098;28;20029;-66
2022/05/01 09:32:57;;;;;;;9.23;4.20;;;11.40;99.90;;;;;;5000003;28;20037;-65
2022/05/01 09:35:27;;;;;;;6.53;4.30;;;11.50;99.90;;;;;;5045901;28;20160;-65
2022/05/01 09:38:15;;;;;;;7.75;4.20;;;11.50;99.90;;;;;;5022623;28;20087;-65
2022/05/01 09:40:44;;;;;;;6.72;4.22;;;11.50;99.90;;;;;;5025304;28;20045;-65
2022/05/01 09:43:37;;;;;;;9.75;4.65;;;11.50;99.90;;;;;;5040181;28;20037;-66
2022/05/01 09:46:14;;;;;;;6.90;4.50;;;11.60;99.90;;;;;;5036280;28;20034;-65
2022/05/01 09:48:41;;;;;;;7.38;4.03;;;11.60;99.90;;;;;;5045294;28;20049;-66
2022/05/01 09:51:15;;;;;;;8.55;4.40;;;11.60;99.90;;;;;;5031630;28;20162;-71
2022/05/01 09:53:44;;;;;;;8.00;4.45;;;11.70;99.90;;;;;;5021244;28;20040;-66
2022/05/01 09:56:10;;;;;;;6.50;3.70;;;11.70;99.90;;;;;;5044374;28;20059;-65
2022/05/01 09:58:40;;;;;;;6.18;4.05;;;11.80;99.90;;;;;;5018167;28;20037;-65
2022/05/01 10:01:16;;;;;;;10.20;4.65;;;11.90;99.90;;;;;;5042615;28;20068;-66
2022/05/01 10:03:46;;;;;;;7.73;4.00;;;12.00;99.90;;;;;;5032493;28;20041;-66
2022/05/01 10:06:16;;;;;;;7.70;3.88;;;12.10;99.90;;;;;;5030803;28;20486;-65
2022/05/01 10:08:45;;;;;;;7.82;3.88;;;12.10;99.90;;;;;;5035460;28;20127;-66
2022/05/01 10:11:16;;;;;;;7.95;3.38;;;12.10;99.10;;;;;;5032694;28;20091;-66
2022/05/01 10:13:43;;;;;;;9.25;3.00;;;12.20;98.60;;;;;;5034292;28;20036;-66
2022/05/01 10:16:11;;;;;;;6.82;3.40;;;12.20;98.90;;;;;;5045418;28;20445;-66
2022/05/01 10:18:38;;;;;;;5.95;3.55;;;12.30;99.30;;;;;;5014126;28;20048;-65
2022/05/01 10:21:05;;;;;;;7.20;3.47;;;12.20;95.90;;;;;;5013527;28;20134;-66
2022/05/01 10:23:32;;;;;;;6.60;3.80;;;12.30;96.80;;;;;;5008117;28;20131;-65
2022/05/01 10:26:20;;;;;;;6.32;4.03;;;12.30;97.70;;;;;;5030857;28;20462;-66
2022/05/01 10:28:54;;;;;;;6.53;3.42;;;12.30;97.50;;;;;;5037946;28;20072;-66
2022/05/01 10:35:21;;;;;;;4.22;2.90;;;12.50;92.30;;;;;;5037097;28;20033;-66
2022/05/01 10:38:11;;;;;;;7.20;3.50;;;12.70;87.40;;;;;;5022580;28;20057;-66
2022/05/01 10:40:45;;;;;;;6.47;3.50;;;12.90;93.30;;;;;;5018521;28;20479;-66
2022/05/01 10:43:33;;;;;;;9.57;3.58;;;13.10;93.60;;;;;;5034164;28;20163;-66
2022/05/01 10:46:04;;;;;;;6.03;3.35;;;13.30;90.00;;;;;;5032024;28;20042;-66
2022/05/01 10:48:36;;;;;;;7.57;3.13;;;13.40;92.50;;;;;;5040920;28;20048;-66
2022/05/01 10:54:10;;;;;;;6.78;3.17;;;13.80;82.30;;;;;;5040433;28;20044;-66
2022/05/01 10:56:37;;;;;;;7.82;3.78;;;13.80;79.10;;;;;;5037916;28;20551;-70
2022/05/01 10:59:33;;;;;;;8.13;3.00;;;13.80;88.20;;;;;;5041265;28;20034;-66
2022/05/01 11:02:01;;;;;;;5.57;3.38;;;13.70;81.20;;;;;;5041747;28;20056;-66
2022/05/01 11:04:45;;;;;;;6.78;3.33;;;13.70;88.20;;;;;;5042985;28;20082;-69
2022/05/01 11:07:13;;;;;;;6.15;3.03;;;13.70;79.60;;;;;;5037939;28;20037;-66
2022/05/01 11:09:42;;;;;;;6.72;3.50;;;13.60;79.70;;;;;;5015693;28;20456;-67
2022/05/01 11:12:09;;;;;;;5.55;3.42;;;13.50;81.90;;;;;;5044101;28;20052;-67
2022/05/01 11:14:41;;;;;;;5.35;3.58;;;13.40;81.50;;;;;;5040594;28;20044;-70
2022/05/01 11:17:12;;;;;;;4.95;2.97;;;13.50;82.20;;;;;;5018238;28;20446;-72
2022/05/01 11:19:50;;;;;;;6.85;3.38;;;13.50;80.60;;;;;;5042070;28;20382;-67
2022/05/01 11:22:16;;;;;;;4.30;3.05;;;13.60;76.90;;;;;;5034819;28;20037;-69
2022/05/01 11:24:45;;;;;;;5.43;3.00;;;13.70;79.10;;;;;;5034010;28;20045;-65
2022/05/01 11:27:11;;;;;;;5.18;3.20;;;13.70;79.60;;;;;;5024802;28;20569;-66
2022/05/01 11:29:37;;;;;;;4.07;2.57;;;13.80;79.40;;;;;;5040118;28;20124;-65
2022/05/01 11:32:19;;;;;;;9.38;3.72;;;13.80;77.00;;;;;;5038063;28;20419;-67
2022/05/01 11:34:54;;;;;;;4.47;2.80;;;13.80;73.30;;;;;;5040523;28;20063;-68
2022/05/01 11:37:21;;;;;;;4.78;2.50;;;13.80;74.40;;;;;;5040189;28;20479;-68
2022/05/01 11:39:49;;;;;;;6.13;3.40;;;13.90;75.80;;;;;;5043072;28;20501;-68
2022/05/01 11:42:25;;;;;;;5.20;3.33;;;14.10;79.60;;;;;;5022860;28;20071;-68
2022/05/01 11:44:57;;;;;;;5.22;3.00;;;14.30;70.90;;;;;;5050469;28;20581;-68
2022/05/01 11:47:24;;;;;;;7.45;3.22;;;14.50;72.90;;;;;;5042434;28;20033;-70
2022/05/01 11:49:51;;;;;;;5.20;2.67;;;14.50;68.90;;;;;;5045557;28;20021;-68
2022/05/01 11:52:17;;;;;;;4.28;2.42;;;14.50;67.60;;;;;;5046053;28;20033;-69
2022/05/01 11:55:06;;;;;;;4.82;2.78;;;14.50;68.70;;;;;;5044881;28;20036;-69
2022/05/01 12:03:11;;;;;;;4.82;2.40;;;14.50;71.70;;;;;;5036977;28;20049;-69
2022/05/01 12:05:49;;;;;;;;;;;14.50;69.60;;;;;;5014440;28;20065;-68
2022/05/01 12:08:19;;;;;;;6.47;2.72;;;14.40;61.30;;;;;;5012291;28;20389;-68
2022/05/01 12:10:46;;;;;;;4.88;2.28;;;14.50;64.80;;;;;;5031204;28;20028;-68
2022/05/01 12:13:31;;;;;;;;;;;14.80;65.70;;;;;;5048429;22;20056;-64
2022/05/01 12:15:57;;;;;;;3.95;2.20;;;14.90;64.30;;;;;;5057244;28;20008;-66
2022/05/01 12:18:23;;;;;;;4.43;2.28;;;15.10;65.30;;;;;;5045719;28;20483;-65
2022/05/01 12:20:49;;;;;;;4.35;2.38;;;15.20;63.70;;;;;;5042617;28;20088;-65
2022/05/01 12:23:20;;;;;;;4.50;2.50;;;15.20;63.30;;;;;;5031951;28;20451;-66
2022/05/01 12:25:49;;;;;;;5.88;2.88;;;15.30;60.60;;;;;;5049086;28;20460;-65
2022/05/01 12:28:18;;;;;;;6.53;2.03;;;15.40;62.60;;;;;;5018960;28;20080;-66
2022/05/01 12:30:45;;;;;;;3.83;2.00;;;15.50;63.00;;;;;;5045381;28;20591;-66
2022/05/01 12:33:19;;;;;;;4.03;2.38;;;15.50;62.60;;;;;;5042306;28;20464;-65
2022/05/01 12:35:58;;;;;;;5.05;2.35;;;15.50;62.50;;;;;;5043727;28;20067;-65
2022/05/01 12:38:29;;;;;;;4.32;2.20;;;15.50;59.40;;;;;;5029153;28;20114;-66
2022/05/01 12:43:59;;;;;;;5.28;2.30;;;15.30;59.00;;;;;;5043289;28;20067;-66
2022/05/01 12:46:29;;;;;;;3.60;2.20;;;15.10;59.10;;;;;;5023349;28;20090;-66
2022/05/01 12:48:56;;;;;;;5.35;2.55;;;15.00;60.10;;;;;;5045151;28;20041;-66
2022/05/01 12:51:24;;;;;;;4.20;2.17;;;14.90;60.50;;;;;;5034151;28;20375;-66
2022/05/01 12:54:05;;;;;;;3.63;2.00;;;15.00;60.90;;;;;;5044526;28;21032;-67
2022/05/01 12:56:34;;;;;;;4.03;2.15;;;15.20;60.70;;;;;;5026924;28;20128;-67
2022/05/01 12:59:00;;;;;;;3.80;2.35;;;15.40;60.50;;;;;;5041673;28;20045;-66
2022/05/01 13:01:27;;;;;;;9.25;3.30;;;15.60;59.30;;;;;;5044162;28;20037;-66
2022/05/01 13:03:54;;;;;;;3.65;2.17;;;15.80;58.90;;;;;;5044308;28;20131;-66
2022/05/01 13:06:20;;;;;;;2.85;1.80;;;15.90;57.40;;;;;;5040193;28;20130;-66
2022/05/01 13:08:52;;;;;;;5.38;2.20;;;16.00;57.30;;;;;;5043010;28;20037;-66
2022/05/01 13:11:21;;;;;;;3.72;1.88;;;16.10;57.40;;;;;;5024713;28;20098;-66
2022/05/01 13:13:50;;;;;;;9.68;2.53;;;16.40;57.00;;;;;;5040362;28;20622;-65
2022/05/01 13:16:38;;;;;;;3.55;2.20;;;16.50;56.50;;;;;;5025508;28;20409;-66
2022/05/01 13:19:05;;;;;;;3.53;2.05;;;16.70;56.20;;;;;;5035506;28;20094;-66
2022/05/01 13:21:33;;;;;;;4.07;1.83;;;16.80;55.80;;;;;;5042889;28;20126;-66
2022/05/01 13:24:02;;;;;;;4.88;2.92;;;16.80;55.20;;;;;;5041514;28;20087;-66
2022/05/01 13:26:28;;;;;;;3.65;2.08;;;16.90;54.60;;;;;;5044044;28;20109;-66
2022/05/01 13:28:53;;;;;;;3.22;2.17;;;16.90;55.50;;;;;;5045641;28;20041;-66
2022/05/01 13:31:19;;;;;;;2.63;1.92;;;16.90;53.40;;;;;;5044481;28;20405;-66
2022/05/01 13:33:45;;;;;;;3.95;2.25;;;17.00;53.40;;;;;;5021683;28;20119;-66
2022/05/01 13:36:11;;;;;;;4.67;2.33;;;16.90;53.10;;;;;;5015235;28;20521;-66
2022/05/01 13:38:38;;;;;;;4.65;2.05;;;16.90;53.70;;;;;;5032768;28;20318;-66
2022/05/01 13:46:33;;;;;;;5.18;2.33;;;16.90;53.60;;;;;;5041977;28;20049;-66
2022/05/01 13:49:00;;;;;;;6.20;1.80;;;17.00;53.70;;;;;;5040644;28;20174;-66
2022/05/01 13:51:26;;;;;;;2.92;1.75;;;17.10;54.00;;;;;;5036697;28;20075;-66
2022/05/01 13:53:51;;;;;;;2.80;1.73;;;17.30;54.00;;;;;;5041764;28;20050;-66
2022/05/01 13:56:17;;;;;;;5.10;1.80;;;17.30;53.30;;;;;;5037510;28;20465;-66
2022/05/01 13:58:43;;;;;;;2.63;1.75;;;17.20;52.90;;;;;;5044041;28;20528;-66
2022/05/01 14:01:09;;;;;;;3.33;1.98;;;17.30;53.70;;;;;;5043519;28;20045;-66
2022/05/01 14:03:36;;;;;;;3.53;1.67;;;17.30;53.50;;;;;;5043985;28;20200;-65
2022/05/01 14:06:01;;;;;;;3.40;1.80;;;17.30;52.40;;;;;;5041943;28;20045;-65
2022/05/01 14:08:27;;;;;;;3.47;1.73;;;17.30;52.70;;;;;;5041586;28;20484;-65
2022/05/01 14:10:52;;;;;;;5.22;2.00;;;17.20;52.90;;;;;;5043621;28;20232;-66
2022/05/01 14:13:18;;;;;;;6.43;1.88;;;17.10;52.70;;;;;;5042773;28;20086;-65
2022/05/01 14:15:43;;;;;;;4.07;1.90;;;16.80;51.20;;;;;;5044472;28;20123;-66
2022/05/01 14:18:11;;;;;;;5.53;1.97;;;16.50;50.80;;;;;;5017214;28;20045;-65
2022/05/01 14:20:37;;;;;;;3.83;1.77;;;16.30;51.40;;;;;;5040750;28;20299;-66